Time;durP1;ratioP1;P1;durP2;ratioP2;P2;SDS_P1;SDS_P2;PMS_P1;PMS_P2;Temp;Humidity;BMP_temperature;BMP_pressure;BME280_temperature;BME280_humidity;BME280_pressure;Samples;Min_cycle;Max_cycle;Signal;HPM_P1;HPM_P2
2022/05/09 00:01:59;;;;;;;4.37;2.80;;;;;;;15.04;65.46;100752.66;1663396;86;21565;-80
2022/05/09 00:04:26;;;;;;;3.92;2.62;;;;;;;14.98;65.56;100752.45;1668369;84;21114;-82
2022/05/09 00:06:52;;;;;;;2.98;2.17;;;;;;;14.97;65.34;100750.81;1666740;86;21600;-77
2022/05/09 00:09:20;;;;;;;7.03;3.27;;;;;;;14.96;65.51;100747.81;1661015;86;21463;-82
2022/05/09 00:11:46;;;;;;;1.87;1.65;;;;;;;14.95;65.53;100747.48;1668196;84;21007;-79
2022/05/09 00:14:13;;;;;;;2.05;1.67;;;;;;;14.95;65.45;100746.14;1650856;86;21553;-80
2022/05/09 00:16:41;;;;;;;2.25;1.67;;;;;;;14.96;65.80;100757.20;1669051;84;21053;-81
2022/05/09 00:19:09;;;;;;;;;;;;;;;14.91;65.79;100754.83;1663521;84;21180;-81
2022/05/09 00:21:38;;;;;;;3.80;2.35;;;;;;;14.86;66.24;100760.83;1670603;84;20208;-80
2022/05/09 00:24:14;;;;;;;1.90;1.80;;;;;;;14.73;66.51;100767.50;1669349;84;21463;-82
2022/05/09 00:26:40;;;;;;;3.47;2.08;;;;;;;14.67;66.65;100758.42;1674974;85;21149;-74
2022/05/09 00:29:07;;;;;;;2.60;1.72;;;;;;;14.67;66.81;100753.58;1665081;84;21046;-82
2022/05/09 00:31:33;;;;;;;1.98;1.70;;;;;;;14.68;67.00;100748.53;1670458;84;21053;-75
2022/05/09 00:34:00;;;;;;;1.70;1.60;;;;;;;14.71;67.00;100746.27;1663132;84;21065;-79
2022/05/09 00:36:26;;;;;;;1.55;1.42;;;;;;;14.74;67.15;100747.18;1670698;86;21045;-82
2022/05/09 00:38:53;;;;;;;3.25;1.87;;;;;;;14.79;67.23;100749.27;1660886;84;20996;-83
2022/05/09 00:41:31;;;;;;;3.12;2.50;;;;;;;14.81;67.27;100747.20;1652496;84;21124;-75
2022/05/09 00:44:03;;;;;;;8.28;3.80;;;;;;;14.84;67.67;100749.97;1666695;86;21063;-82
2022/05/09 00:46:30;;;;;;;3.92;3.25;;;;;;;14.81;67.96;100751.22;1669935;84;21555;-80
2022/05/09 00:49:31;;;;;;;3.35;3.08;;;;;;;14.75;68.54;100753.39;1670247;86;21571;-80
2022/05/09 00:52:08;;;;;;;3.67;3.47;;;;;;;14.64;69.12;100756.16;1657288;86;20971;-81
2022/05/09 00:54:41;;;;;;;3.92;3.58;;;;;;;14.49;70.15;100760.34;1666371;84;21023;-77
2022/05/09 00:57:24;;;;;;;3.67;3.37;;;;;;;14.41;70.15;100755.99;1668702;84;20995;-82
2022/05/09 00:59:55;;;;;;;3.15;2.95;;;;;;;14.37;70.71;100752.56;1668946;86;22317;-81
2022/05/09 01:02:23;;;;;;;2.58;2.37;;;;;;;14.31;70.50;100752.05;1669804;85;21543;-80
2022/05/09 01:04:55;;;;;;;2.75;2.55;;;;;;;14.29;70.63;100753.58;1662855;86;21339;-74
2022/05/09 01:07:23;;;;;;;2.90;2.70;;;;;;;14.31;70.50;100762.77;1668738;86;21042;-72
2022/05/09 01:09:50;;;;;;;3.70;3.40;;;;;;;14.31;70.75;100762.77;1670759;86;21026;-78
2022/05/09 01:12:27;;;;;;;3.50;3.20;;;;;;;14.27;71.11;100759.66;1668300;84;21028;-80
2022/05/09 01:14:54;;;;;;;3.65;3.35;;;;;;;14.20;72.16;100763.69;1664837;85;21007;-82
2022/05/09 01:17:23;;;;;;;2.85;2.62;;;;;;;14.16;72.17;100761.07;1666434;86;21361;-78
2022/05/09 01:19:53;;;;;;;3.47;3.17;;;;;;;14.13;72.31;100766.85;1660617;86;21093;-80
2022/05/09 01:22:29;;;;;;;4.53;2.95;;;;;;;14.14;72.47;100767.67;1668188;84;21053;-75
2022/05/09 01:25:03;;;;;;;2.70;2.55;;;;;;;14.12;72.82;100771.89;1658747;86;20994;-80
2022/05/09 01:27:31;;;;;;;2.55;2.37;;;;;;;14.13;72.62;100772.73;1671126;84;21086;-78
2022/05/09 01:30:06;;;;;;;2.35;2.12;;;;;;;14.11;72.94;100770.25;1666770;84;21094;-78
2022/05/09 01:32:43;;;;;;;1.45;1.35;;;;;;;14.09;72.71;100773.65;1670082;84;20994;-82
2022/05/09 01:35:25;;;;;;;4.12;1.52;;;;;;;14.10;72.91;100781.98;1661590;84;21027;-84
2022/05/09 01:38:29;;;;;;;2.02;1.30;;;;;;;14.06;72.86;100782.08;1668419;86;21035;-81
2022/05/09 01:40:55;;;;;;;1.35;1.00;;;;;;;14.04;73.26;100788.16;1663629;86;21039;-80
2022/05/09 01:43:39;;;;;;;1.05;0.70;;;;;;;14.00;73.35;100790.92;1668277;86;21066;-80
2022/05/09 01:46:11;;;;;;;2.92;1.07;;;;;;;13.97;73.64;100795.34;1670390;84;21111;-82
2022/05/09 01:51:22;;;;;;;0.68;0.68;;;;;;;13.89;74.21;100795.52;1670531;84;21050;-80
2022/05/09 01:53:50;;;;;;;1.10;0.88;;;;;;;13.80;74.68;100796.19;1670260;84;21057;-80
2022/05/09 01:56:23;;;;;;;3.20;0.90;;;;;;;13.78;74.78;100799.05;1668956;84;21057;-81
2022/05/09 01:58:50;;;;;;;2.62;1.40;;;;;;;13.77;74.67;100810.81;1633156;88;21535;-82
2022/05/09 02:01:17;;;;;;;;;;;;;;;13.77;74.68;100804.64;1635159;88;21540;-83
2022/05/09 02:03:45;;;;;;;2.65;1.57;;;;;;;13.79;74.96;100807.94;1627009;88;20202;-81
2022/05/09 02:06:17;;;;;;;1.35;1.12;;;;;;;13.75;75.23;100808.84;1670910;85;21091;-81
2022/05/09 02:08:45;;;;;;;2.47;1.07;;;;;;;13.74;75.63;100806.36;1671235;86;21069;-76
2022/05/09 02:11:11;;;;;;;1.75;1.20;;;;;;;13.74;75.92;100806.36;1668532;84;21018;-80
2022/05/09 02:13:38;;;;;;;;;;;;;;;13.71;75.89;100807.59;1672000;86;21062;-75
2022/05/09 02:16:05;;;;;;;6.95;1.17;;;;;;;13.72;76.01;100810.57;1668033;84;20170;-72
2022/05/09 02:18:33;;;;;;;2.17;0.82;;;;;;;13.69;76.35;100814.97;1673447;84;21022;-82
2022/05/09 02:20:59;;;;;;;2.47;0.90;;;;;;;13.66;76.78;100817.25;1669836;84;21038;-82
2022/05/09 02:23:26;;;;;;;1.75;0.65;;;;;;;13.61;76.98;100817.81;1669174;84;21071;-78
2022/05/09 02:25:53;;;;;;;0.85;0.60;;;;;;;13.59;77.49;100828.72;1674147;84;20971;-70
2022/05/09 02:28:22;;;;;;;0.95;0.55;;;;;;;13.51;77.38;100820.03;1668298;86;21039;-73
2022/05/09 02:30:48;;;;;;;1.45;1.00;;;;;;;13.58;77.78;100824.89;1667361;84;20995;-79
2022/05/09 02:33:15;;;;;;;0.75;0.57;;;;;;;13.60;77.78;100825.03;1671566;84;21067;-83
2022/05/09 02:35:47;;;;;;;0.45;0.40;;;;;;;13.64;77.78;100836.19;1670962;84;21023;-77
2022/05/09 02:38:15;;;;;;;0.60;0.60;;;;;;;13.66;77.81;100839.50;1670178;86;21070;-81
2022/05/09 02:40:42;;;;;;;1.37;0.40;;;;;;;13.65;78.16;100847.20;1671051;86;21024;-80
2022/05/09 02:43:09;;;;;;;0.62;0.47;;;;;;;13.62;78.46;100842.25;1671742;84;21361;-81
2022/05/09 02:45:35;;;;;;;0.68;0.65;;;;;;;13.57;79.08;100840.66;1671047;84;20994;-82
2022/05/09 02:48:01;;;;;;;2.25;0.37;;;;;;;13.53;79.04;100852.28;1670446;84;21082;-80
2022/05/09 02:50:27;;;;;;;;;;;;;;;13.53;79.17;100854.14;1673055;86;21147;-81
2022/05/09 02:52:54;;;;;;;0.55;0.55;;;;;;;13.51;79.25;100850.31;1669605;86;20232;-81
2022/05/09 02:55:23;;;;;;;0.70;0.47;;;;;;;13.49;79.47;100852.88;1667499;84;21043;-74
2022/05/09 02:57:50;;;;;;;0.90;0.60;;;;;;;13.52;79.55;100856.48;1667699;84;20996;-76
2022/05/09 03:00:21;;;;;;;2.40;0.50;;;;;;;13.51;79.95;100857.52;1665186;84;21026;-81
2022/05/09 03:05:37;;;;;;;0.57;0.50;;;;;;;13.58;79.85;100867.75;1624940;88;21109;-71
2022/05/09 03:08:06;;;;;;;1.65;0.68;;;;;;;13.68;79.85;100877.63;1667563;86;21133;-79
2022/05/09 03:10:32;;;;;;;0.50;0.50;;;;;;;13.74;79.46;100875.50;1660824;84;21601;-80
2022/05/09 03:12:59;;;;;;;;;;;;;;;13.75;79.39;100877.16;1660822;84;21642;-81
2022/05/09 03:15:27;;;;;;;1.87;0.55;;;;;;;13.75;79.34;100883.02;1663490;86;20534;-77
2022/05/09 03:17:54;;;;;;;0.70;0.30;;;;;;;13.75;79.59;100886.55;1657171;86;21089;-81
2022/05/09 03:20:25;;;;;;;2.58;0.33;;;;;;;13.96;79.48;100890.18;1666998;86;21052;-77
2022/05/09 03:22:51;;;;;;;2.25;0.65;;;;;;;14.21;78.06;100888.66;1670840;84;21008;-83
2022/05/09 03:25:18;;;;;;;0.47;0.45;;;;;;;14.48;76.98;100890.10;1669049;86;21054;-82
2022/05/09 03:27:45;;;;;;;2.60;0.78;;;;;;;14.70;76.07;100888.67;1669161;84;21104;-83
2022/05/09 03:30:13;;;;;;;;;;;;;;;14.77;75.38;100893.03;1669265;86;21122;-83
2022/05/09 03:32:39;;;;;;;4.40;0.62;;;;;;;14.95;75.38;100900.48;1667460;86;20120;-76
2022/05/09 03:35:08;;;;;;;0.95;0.70;;;;;;;15.21;74.50;100904.25;1665477;84;21022;-79
2022/05/09 03:37:36;;;;;;;1.20;0.90;;;;;;;15.57;73.83;100904.37;1662602;86;21015;-75
2022/05/09 03:40:04;;;;;;;0.78;0.45;;;;;;;15.98;71.99;100909.22;1665457;84;21093;-77
2022/05/09 03:42:31;;;;;;;2.75;0.57;;;;;;;16.40;70.75;100913.75;1659563;86;21538;-82
2022/05/09 03:44:57;;;;;;;0.95;0.42;;;;;;;16.92;68.67;100914.05;1657573;84;21542;-83
2022/05/09 03:47:24;;;;;;;2.27;0.85;;;;;;;17.38;65.92;100912.59;1658633;86;21058;-81
2022/05/09 03:49:55;;;;;;;2.15;0.65;;;;;;;17.65;65.28;100912.69;1671256;86;21556;-81
2022/05/09 03:52:21;;;;;;;1.12;0.95;;;;;;;17.79;63.66;100909.86;1670367;84;21066;-84
2022/05/09 03:54:48;;;;;;;0.98;0.70;;;;;;;17.42;63.61;100910.61;1660999;86;21593;-84
2022/05/09 03:57:14;;;;;;;;;;;;;;;16.98;64.51;100915.58;1673118;84;21047;-81
2022/05/09 03:59:42;;;;;;;0.40;0.40;;;;;;;16.51;65.65;100920.63;1661822;86;20185;-83
2022/05/09 04:02:10;;;;;;;0.70;0.50;;;;;;;16.05;66.97;100925.65;1667701;84;21017;-74
2022/05/09 04:04:36;;;;;;;1.05;0.30;;;;;;;15.77;67.50;100931.27;1664970;86;21359;-83
2022/05/09 04:07:03;;;;;;;0.68;0.42;;;;;;;15.65;67.95;100933.73;1658980;84;21336;-79
2022/05/09 04:09:29;;;;;;;1.37;0.70;;;;;;;15.77;67.96;100935.30;1659901;84;21061;-76
2022/05/09 04:11:57;;;;;;;0.50;0.30;;;;;;;16.10;66.30;100941.95;1671314;84;20998;-82
2022/05/09 04:17:09;;;;;;;0.82;0.57;;;;;;;16.57;63.70;100935.63;1667014;84;20246;-82
2022/05/09 04:19:37;;;;;;;0.88;0.30;;;;;;;16.53;62.65;100943.29;1662537;84;21083;-80
2022/05/09 04:22:04;;;;;;;2.83;0.60;;;;;;;16.43;62.54;100947.78;1667236;86;21023;-78
2022/05/09 04:24:31;;;;;;;0.70;0.68;;;;;;;16.10;63.19;100953.23;1668412;86;21129;-75
2022/05/09 04:26:59;;;;;;;0.82;0.65;;;;;;;15.90;63.82;100961.35;1670658;86;21519;-82
2022/05/09 04:29:27;;;;;;;1.02;0.93;;;;;;;15.78;64.18;100965.69;1663694;86;21054;-81
2022/05/09 04:31:54;;;;;;;1.98;0.60;;;;;;;15.65;63.85;100959.76;1662248;84;21026;-81
2022/05/09 04:34:20;;;;;;;1.75;0.72;;;;;;;15.38;65.35;100967.28;1668937;85;21070;-82
2022/05/09 04:36:46;;;;;;;4.37;1.02;;;;;;;15.09;66.07;100963.63;1646803;84;21166;-80
2022/05/09 04:39:13;;;;;;;1.80;1.70;;;;;;;14.84;67.26;100966.83;1663553;86;21545;-78
2022/05/09 04:41:39;;;;;;;1.22;1.12;;;;;;;14.66;68.13;100979.47;1655551;84;21045;-83
2022/05/09 04:44:05;;;;;;;1.62;1.52;;;;;;;14.56;68.96;100988.35;1667164;84;21082;-78
2022/05/09 04:46:34;;;;;;;2.35;1.55;;;;;;;14.37;69.63;100989.91;1665823;84;21078;-75
2022/05/09 04:49:00;;;;;;;1.27;1.27;;;;;;;14.02;70.62;100995.26;1668034;86;21566;-81
2022/05/09 04:51:27;;;;;;;1.15;1.15;;;;;;;13.76;71.36;101008.75;1664792;84;21044;-82
2022/05/09 04:53:54;;;;;;;1.60;1.50;;;;;;;13.63;71.74;101006.77;1667780;84;21086;-80
2022/05/09 04:56:20;;;;;;;2.85;1.22;;;;;;;13.59;72.68;101012.72;1663308;84;21545;-84
2022/05/09 04:58:47;;;;;;;;;;;;;;;13.46;74.05;101009.91;1670859;84;21063;-73
2022/05/09 05:01:13;;;;;;;1.70;1.60;;;;;;;12.99;73.90;100960.69;1671807;84;20177;-75
2022/05/09 05:04:56;;;;;;;1.57;1.57;;;;;;;13.25;74.15;101022.23;1803956;78;22611;-72
2022/05/09 05:07:22;;;;;;;2.47;2.30;;;;;;;13.16;73.40;101031.39;1777916;80;21012;-77
2022/05/09 05:09:48;;;;;;;2.30;1.10;;;;;;;13.06;73.98;101035.70;1776646;80;21037;-79
2022/05/09 05:12:14;;;;;;;1.85;1.75;;;;;;;12.99;74.11;101038.28;1773021;80;21021;-69
2022/05/09 05:14:40;;;;;;;2.52;2.33;;;;;;;13.03;73.96;101037.41;1763376;79;21056;-72
2022/05/09 05:17:07;;;;;;;1.32;1.22;;;;;;;13.08;74.16;101043.55;1772072;80;20962;-75
2022/05/09 05:19:37;;;;;;;1.62;1.52;;;;;;;13.13;74.17;101046.47;1763152;80;21083;-79
2022/05/09 05:22:05;;;;;;;1.45;1.35;;;;;;;13.23;73.94;101041.16;1764949;80;21009;-77
2022/05/09 05:24:34;;;;;;;1.17;1.17;;;;;;;13.51;72.86;101038.30;1720863;83;21039;-83
2022/05/09 05:27:01;;;;;;;1.85;0.88;;;;;;;13.82;71.20;101044.66;1725256;83;21072;-83
2022/05/09 05:29:27;;;;;;;1.52;1.42;;;;;;;14.08;69.63;101041.38;1724664;83;21041;-74
2022/05/09 05:31:53;;;;;;;3.08;1.20;;;;;;;14.13;68.14;101040.30;1730483;83;21076;-76
2022/05/09 05:34:19;;;;;;;0.85;0.85;;;;;;;14.12;68.04;101041.82;1742743;81;20989;-84
2022/05/09 05:36:46;;;;;;;1.17;1.07;;;;;;;14.15;67.89;101046.28;1762926;81;21076;-77
2022/05/09 05:39:15;;;;;;;1.32;1.32;;;;;;;14.34;67.48;101047.45;1727200;82;20998;-89
2022/05/09 05:41:43;;;;;;;1.65;1.02;;;;;;;14.64;66.46;101051.81;1704134;81;20939;-79
2022/05/09 05:44:13;;;;;;;1.25;0.98;;;;;;;15.04;64.19;101050.66;1713283;83;21033;-71
2022/05/09 05:46:43;;;;;;;1.20;1.10;;;;;;;15.53;62.96;101044.19;1688580;84;21082;-81
2022/05/09 05:49:13;;;;;;;0.85;0.85;;;;;;;16.04;59.30;101054.39;1676166;84;21014;-77
2022/05/09 05:51:39;;;;;;;1.42;1.32;;;;;;;16.40;58.78;101047.74;1672591;85;21009;-82
2022/05/09 05:54:08;;;;;;;0.68;0.60;;;;;;;16.85;56.27;101055.94;1666749;84;21092;-83
2022/05/09 05:56:37;;;;;;;0.82;0.80;;;;;;;16.78;55.48;101055.62;1709078;83;21070;-80
2022/05/09 05:59:02;;;;;;;1.10;0.68;;;;;;;16.84;55.89;101066.42;1715592;82;21093;-81
2022/05/09 06:01:28;;;;;;;;;;;;;;;16.84;55.82;101062.88;1695849;84;21003;-82
2022/05/09 06:03:54;;;;;;;0.55;0.35;;;;;;;16.99;55.08;101055.39;1678457;84;20123;-80
2022/05/09 06:06:20;;;;;;;1.17;0.30;;;;;;;17.16;53.67;101069.70;1673048;85;21026;-80
2022/05/09 06:08:48;;;;;;;0.50;0.30;;;;;;;17.03;53.23;101063.87;1671944;85;21029;-78
2022/05/09 06:11:14;;;;;;;0.45;0.45;;;;;;;16.96;52.81;101067.93;1646047;86;21017;-81
2022/05/09 06:13:41;;;;;;;;;;;;;;;17.30;51.69;101076.17;1623874;86;21056;-82
2022/05/09 06:16:08;;;;;;;0.65;0.30;;;;;;;17.66;50.29;101069.33;1643280;85;20118;-80
2022/05/09 06:18:35;;;;;;;0.47;0.20;;;;;;;17.87;49.37;101072.75;1672449;83;21079;-81
2022/05/09 06:21:03;;;;;;;1.65;0.30;;;;;;;18.13;48.35;101077.64;1671982;83;21109;-80
2022/05/09 06:23:29;;;;;;;2.47;0.50;;;;;;;18.13;48.35;101077.64;1676214;83;21506;-76
2022/05/09 06:25:56;;;;;;;0.72;0.30;;;;;;;18.16;46.85;101083.92;1677646;83;21090;-82
2022/05/09 06:28:23;;;;;;;0.30;0.10;;;;;;;18.19;46.84;101078.10;1674949;83;21300;-82
2022/05/09 06:30:50;;;;;;;2.80;0.42;;;;;;;18.09;47.19;101084.00;1672791;83;21565;-81
2022/05/09 06:33:23;;;;;;;0.20;0.20;;;;;;;18.07;47.55;101098.23;1676384;84;21066;-83
2022/05/09 06:35:52;;;;;;;2.65;0.40;;;;;;;17.98;46.65;101083.36;1638327;86;21124;-79
2022/05/09 06:38:19;;;;;;;1.55;0.20;;;;;;;17.94;46.08;101092.41;1667836;84;21290;-71
2022/05/09 06:40:46;;;;;;;0.77;0.20;;;;;;;17.77;44.49;101066.99;1675609;84;21605;-79
2022/05/09 06:43:13;;;;;;;2.85;0.20;;;;;;;17.69;43.71;101073.48;1673311;84;21250;-80
2022/05/09 06:45:41;;;;;;;0.82;0.10;;;;;;;17.77;42.90;101093.43;1678443;84;21296;-79
2022/05/09 06:48:09;;;;;;;0.30;0.23;;;;;;;17.88;42.64;101075.77;1674481;84;21057;-84
2022/05/09 06:50:37;;;;;;;2.67;0.40;;;;;;;17.88;42.70;101081.97;1675141;84;21093;-84
2022/05/09 06:53:06;;;;;;;1.15;0.20;;;;;;;18.05;43.18;101089.00;1678230;84;21057;-77
2022/05/09 06:55:33;;;;;;;4.42;0.37;;;;;;;18.10;42.69;101084.28;1678135;84;21049;-81
2022/05/09 06:57:59;;;;;;;0.55;0.20;;;;;;;18.07;42.86;101113.89;1693737;83;21113;-76
2022/05/09 07:00:26;;;;;;;;;;;;;;;17.90;43.26;101095.25;1703002;82;21080;-80
2022/05/09 07:02:53;;;;;;;0.80;0.30;;;;;;;17.56;42.88;101104.03;1728991;81;20422;-79
2022/05/09 07:05:21;;;;;;;2.15;0.10;;;;;;;17.23;41.33;101106.34;1728450;81;21571;-79
2022/05/09 07:07:48;;;;;;;1.10;0.17;;;;;;;17.25;40.65;101091.33;1726335;82;21613;-78
2022/05/09 07:10:16;;;;;;;0.70;0.10;;;;;;;17.41;40.53;101102.15;1727464;81;21333;-78
2022/05/09 07:12:51;;;;;;;5.03;0.20;;;;;;;17.57;39.60;101113.75;1694121;82;21122;-82
2022/05/09 07:15:22;;;;;;;1.75;0.15;;;;;;;17.45;40.83;101115.49;1680493;84;21794;-80
2022/05/09 07:17:50;;;;;;;0.95;0.20;;;;;;;17.45;40.83;101115.49;1681089;84;22364;-78
2022/05/09 07:20:19;;;;;;;2.95;0.20;;;;;;;17.34;38.21;101103.52;1677505;84;21058;-82
2022/05/09 07:22:50;;;;;;;0.57;0.10;;;;;;;17.28;38.98;101112.46;1695052;81;21100;-83
2022/05/09 07:25:17;;;;;;;0.20;0.20;;;;;;;17.04;39.68;101109.95;1726608;81;21060;-82
2022/05/09 07:27:43;;;;;;;0.85;0.10;;;;;;;17.04;39.68;101109.95;1731512;81;21198;-82
2022/05/09 07:30:15;;;;;;;;;;;;;;;16.76;39.45;101126.36;1734332;81;20986;-77
2022/05/09 07:32:41;;;;;;;0.85;0.10;;;;;;;16.66;39.59;101118.72;1733751;81;20120;-75
2022/05/09 07:35:10;;;;;;;0.45;0.10;;;;;;;16.52;40.47;101122.77;1726026;81;21061;-79
2022/05/09 07:37:38;;;;;;;0.53;0.20;;;;;;;16.51;40.88;101118.41;1675040;84;21059;-72
2022/05/09 07:40:10;;;;;;;2.10;0.10;;;;;;;16.58;39.37;101112.22;1700190;83;21006;-75
2022/05/09 07:42:36;;;;;;;4.50;0.20;;;;;;;16.54;39.29;101108.59;1689519;83;21118;-79
2022/05/09 07:45:05;;;;;;;1.45;0.10;;;;;;;16.57;38.84;101125.35;1649546;85;21061;-73
2022/05/09 07:47:32;;;;;;;0.50;0.20;;;;;;;16.63;38.53;101128.55;1692734;84;21487;-82
2022/05/09 07:49:58;;;;;;;6.92;0.17;;;;;;;16.63;38.40;101123.16;1695832;84;21574;-80
2022/05/09 07:52:25;;;;;;;1.22;0.17;;;;;;;16.64;37.57;101136.42;1692387;84;21063;-83
2022/05/09 07:54:51;;;;;;;1.10;0.20;;;;;;;16.59;37.45;101129.48;1692996;84;21055;-83
2022/05/09 07:57:18;;;;;;;0.93;0.10;;;;;;;16.51;37.67;101131.05;1702717;83;21136;-74
2022/05/09 07:59:46;;;;;;;2.77;0.20;;;;;;;16.47;37.43;101125.25;1704141;83;21114;-85
2022/05/09 08:02:12;;;;;;;1.17;0.28;;;;;;;16.43;37.61;101137.47;1704999;83;21018;-87
2022/05/09 08:04:39;;;;;;;;;;;;;;;16.47;37.20;101147.30;1705228;83;21097;-82
2022/05/09 08:07:06;;;;;;;2.35;0.15;;;;;;;16.41;36.58;101154.87;1700910;84;20157;-83
2022/05/09 08:09:34;;;;;;;0.20;0.10;;;;;;;16.25;37.36;101149.36;1704698;84;21109;-84
2022/05/09 08:12:00;;;;;;;0.78;0.20;;;;;;;16.14;38.23;101136.00;1703333;83;21019;-71
2022/05/09 08:14:28;;;;;;;5.25;0.33;;;;;;;16.11;38.26;101146.66;1696478;83;21067;-79
2022/05/09 08:16:54;;;;;;;1.05;0.28;;;;;;;16.15;37.26;101141.18;1693339;83;20964;-84
2022/05/09 08:19:20;;;;;;;0.40;0.20;;;;;;;16.15;37.38;101147.08;1692377;83;21138;-80
2022/05/09 08:21:49;;;;;;;1.12;0.20;;;;;;;16.12;37.56;101144.80;1690138;83;21008;-81
2022/05/09 08:24:15;;;;;;;1.00;0.10;;;;;;;15.98;37.80;101109.00;1686238;83;21069;-83
2022/05/09 08:26:41;;;;;;;;;;;;;;;16.25;37.28;101141.30;1686470;84;21082;-82
2022/05/09 08:29:07;;;;;;;1.25;0.37;;;;;;;16.30;37.04;101148.23;1690557;83;20467;-79
2022/05/09 08:31:34;;;;;;;0.53;0.10;;;;;;;16.26;37.28;101145.66;1686241;83;21065;-82
2022/05/09 08:34:01;;;;;;;1.85;0.35;;;;;;;16.35;37.47;101141.20;1696141;83;21132;-81
2022/05/09 08:36:46;;;;;;;3.45;0.10;;;;;;;16.51;36.78;101141.81;1716069;82;21220;-79
2022/05/09 08:39:16;;;;;;;2.02;0.20;;;;;;;16.62;35.76;101156.52;1720221;82;20981;-81
2022/05/09 08:42:06;;;;;;;1.07;0.37;;;;;;;16.58;35.10;101163.36;1717057;82;21015;-82
2022/05/09 08:44:51;;;;;;;2.77;0.15;;;;;;;16.36;34.67;101181.03;1713947;82;20967;-82
2022/05/09 08:47:41;;;;;;;1.67;0.10;;;;;;;16.16;35.19;101152.76;1676939;84;21010;-83
2022/05/09 08:50:35;;;;;;;9.65;0.37;;;;;;;16.22;33.16;101163.21;1681083;84;21403;-78
2022/05/09 08:53:07;;;;;;;2.30;0.10;;;;;;;16.21;32.64;101183.09;1657221;85;21116;-82
2022/05/09 08:55:38;;;;;;;1.00;0.10;;;;;;;16.12;33.14;101147.48;1679409;84;21034;-79
2022/05/09 08:58:46;;;;;;;0.15;0.10;;;;;;;16.22;33.10;101148.42;1663702;86;21018;-79
2022/05/09 09:01:17;;;;;;;3.58;0.10;;;;;;;16.36;32.92;101147.41;1662995;84;21617;-82
2022/05/09 09:03:58;;;;;;;1.55;0.25;;;;;;;16.47;32.81;101161.58;1693788;83;21612;-81
2022/05/09 09:06:51;;;;;;;0.40;0.10;;;;;;;16.45;32.43;101165.00;1689602;83;21196;-78
2022/05/09 09:09:48;;;;;;;0.35;0.10;;;;;;;16.36;32.36;101162.20;1694693;83;21246;-82
2022/05/09 09:12:33;;;;;;;3.08;0.90;;;;;;;16.34;32.76;101159.71;1692532;83;21081;-80
2022/05/09 09:15:23;;;;;;;2.37;0.10;;;;;;;16.38;32.92;101160.13;1688939;85;21053;-83
2022/05/09 09:18:29;;;;;;;6.22;0.10;;;;;;;16.42;32.15;101161.36;1693163;83;21149;-76
2022/05/09 09:21:04;;;;;;;0.55;0.20;;;;;;;16.38;32.50;101145.33;1689488;85;21112;-78
2022/05/09 09:24:00;;;;;;;2.83;0.17;;;;;;;16.38;31.32;101155.27;1685424;83;21103;-82
2022/05/09 09:26:53;;;;;;;0.85;0.10;;;;;;;16.35;31.44;101152.48;1686263;83;21101;-83
2022/05/09 09:29:37;;;;;;;0.65;0.10;;;;;;;16.40;31.68;101161.27;1690607;83;21058;-78
2022/05/09 09:32:11;;;;;;;3.30;0.10;;;;;;;16.45;30.74;101186.52;1692145;83;21953;-77
2022/05/09 09:34:52;;;;;;;0.65;0.10;;;;;;;16.38;30.10;101168.73;1691339;83;21667;-82
2022/05/09 09:37:47;;;;;;;2.05;0.10;;;;;;;16.37;29.87;101173.28;1691163;83;21053;-81
2022/05/09 09:40:14;;;;;;;2.15;0.10;;;;;;;16.26;30.04;101165.30;1686641;83;21054;-81
2022/05/09 09:42:40;;;;;;;0.35;0.10;;;;;;;16.21;29.72;101166.95;1689665;83;21482;-83
2022/05/09 09:45:40;;;;;;;0.23;0.08;;;;;;;16.21;30.15;101163.73;1684849;83;21409;-84
2022/05/09 09:48:19;;;;;;;0.33;0.10;;;;;;;16.23;30.59;101150.09;1684374;83;21106;-81
2022/05/09 09:51:06;;;;;;;5.78;0.10;;;;;;;16.48;31.14;101152.98;1691847;83;21082;-77
2022/05/09 09:53:52;;;;;;;4.40;0.10;;;;;;;16.64;31.61;101151.75;1683137;83;20979;-83
2022/05/09 09:56:27;;;;;;;0.17;0.10;;;;;;;16.62;31.79;101151.13;1696922;83;21623;-79
2022/05/09 09:59:11;;;;;;;1.27;0.20;;;;;;;16.59;32.17;101142.94;1704652;83;21014;-84
2022/05/09 10:01:37;;;;;;;0.30;0.10;;;;;;;16.58;31.60;101169.55;1696160;83;20989;-84
2022/05/09 10:04:09;;;;;;;0.28;0.10;;;;;;;16.63;29.84;101157.66;1699275;83;20986;-83
2022/05/09 10:07:05;;;;;;;0.20;0.17;;;;;;;16.68;29.50;101160.53;1703608;83;21497;-81
2022/05/09 10:09:48;;;;;;;0.62;0.10;;;;;;;16.70;29.87;101154.41;1707122;83;21121;-81
2022/05/09 10:12:27;;;;;;;1.17;0.08;;;;;;;16.74;31.21;101157.52;1692604;81;21569;-85
2022/05/09 10:14:56;;;;;;;0.72;0.10;;;;;;;16.87;30.81;101155.36;1692624;83;21038;-85
2022/05/09 10:17:29;;;;;;;0.47;0.05;;;;;;;16.94;31.11;101154.84;1694007;83;21039;-84
2022/05/09 10:20:00;;;;;;;0.40;0.03;;;;;;;17.05;30.67;101155.53;1693880;83;21081;-82
2022/05/09 10:25:24;;;;;;;1.10;0.15;;;;;;;17.18;29.87;101151.98;1696401;83;21020;-82
2022/05/09 10:28:15;;;;;;;0.75;0.40;;;;;;;17.18;29.80;101147.94;1701626;83;21079;-78
2022/05/09 10:30:50;;;;;;;0.62;0.10;;;;;;;17.18;29.38;101153.83;1694591;83;21129;-78
2022/05/09 10:33:35;;;;;;;0.85;0.17;;;;;;;17.20;29.41;101146.39;1681682;83;21974;-82
2022/05/09 10:36:08;;;;;;;2.10;0.62;;;;;;;17.27;28.54;101151.20;1681750;83;21104;-84
2022/05/09 10:38:52;;;;;;;3.80;0.30;;;;;;;17.28;26.95;101147.48;1688940;83;21090;-82
2022/05/09 10:41:36;;;;;;;0.37;0.00;;;;;;;17.25;26.73;101146.55;1688295;83;21094;-83
2022/05/09 10:44:34;;;;;;;0.75;0.10;;;;;;;17.26;26.34;101149.04;1687596;83;21026;-75
2022/05/09 10:47:22;;;;;;;1.27;0.20;;;;;;;17.26;26.45;101146.34;1665527;84;21058;-72
2022/05/09 10:50:15;;;;;;;1.95;0.20;;;;;;;17.05;26.99;101131.30;1652656;85;21063;-79
2022/05/09 10:53:10;;;;;;;0.75;0.10;;;;;;;17.05;26.96;101156.06;1694526;83;21043;-82
2022/05/09 10:56:02;;;;;;;0.95;0.10;;;;;;;17.05;26.96;101156.06;1687101;83;21689;-82
2022/05/09 10:58:43;;;;;;;1.37;0.10;;;;;;;17.05;27.23;101157.41;1691636;83;21376;-80
2022/05/09 11:01:27;;;;;;;0.65;0.08;;;;;;;17.07;27.54;101150.77;1699304;82;21083;-75
2022/05/09 11:03:55;;;;;;;2.12;0.10;;;;;;;17.19;27.22;101148.23;1705689;82;21096;-73
2022/05/09 11:07:11;;;;;;;0.90;0.10;;;;;;;17.24;27.13;101161.90;1727921;81;21653;-82
2022/05/09 11:09:49;;;;;;;0.13;0.08;;;;;;;17.25;26.57;101122.30;1703875;82;21085;-81
2022/05/09 11:12:39;;;;;;;0.37;0.33;;;;;;;17.21;26.71;101141.29;1710964;82;21070;-79
2022/05/09 11:15:39;;;;;;;1.10;0.00;;;;;;;17.21;26.98;101146.67;1708458;82;20986;-79
2022/05/09 11:18:32;;;;;;;2.27;0.00;;;;;;;17.23;26.80;101149.45;1703158;82;21046;-83
2022/05/09 11:21:10;;;;;;;0.55;0.10;;;;;;;17.19;26.84;101148.76;1708419;83;21122;-75
2022/05/09 11:24:10;;;;;;;1.42;0.10;;;;;;;17.20;26.81;101151.25;1708894;82;21056;-80
2022/05/09 11:27:04;;;;;;;0.90;0.15;;;;;;;17.20;26.61;101144.52;1620548;83;21056;-81
2022/05/09 11:29:45;;;;;;;4.22;0.10;;;;;;;17.24;26.40;101137.66;1694288;83;21044;-72
2022/05/09 11:32:38;;;;;;;0.37;0.00;;;;;;;17.22;26.59;101138.39;1691761;83;21073;-82
2022/05/09 11:35:28;;;;;;;1.32;0.00;;;;;;;17.23;26.47;101144.06;1709951;82;21023;-79
2022/05/09 11:38:32;;;;;;;5.85;0.10;;;;;;;17.26;25.53;101135.57;1706409;82;21300;-77
2022/05/09 11:41:23;;;;;;;0.68;0.10;;;;;;;17.25;25.30;101140.67;1703436;82;21025;-82
2022/05/09 11:44:16;;;;;;;1.17;0.10;;;;;;;17.23;25.33;101140.02;1704021;82;21597;-76
2022/05/09 11:47:20;;;;;;;0.47;0.00;;;;;;;17.17;25.26;101144.92;1704732;82;21098;-82
2022/05/09 11:50:10;;;;;;;0.10;0.00;;;;;;;17.13;25.52;101138.31;1706427;82;21109;-81
2022/05/09 11:52:44;;;;;;;3.77;0.10;;;;;;;17.17;25.47;101146.27;1711401;82;21084;-76
2022/05/09 11:55:19;;;;;;;0.00;0.00;;;;;;;17.16;24.63;101141.09;1713777;82;21076;-77
2022/05/09 11:58:00;;;;;;;2.67;0.17;;;;;;;17.10;24.98;101134.69;1711802;82;21017;-85
2022/05/09 12:00:44;;;;;;;3.22;0.10;;;;;;;17.05;25.19;101132.64;1710290;82;21490;-82
2022/05/09 12:03:13;;;;;;;0.65;0.10;;;;;;;17.05;25.19;101132.64;1682323;83;21113;-78
2022/05/09 12:05:50;;;;;;;0.42;0.10;;;;;;;17.09;25.32;101136.56;1695714;84;21109;-81
2022/05/09 12:08:20;;;;;;;4.03;0.10;;;;;;;17.20;25.36;101123.48;1689378;83;21138;-78